• Join FlightAware (Why Join?)
  • Login
  • US Flag 
12:45PM EDT


 

Airport Tracker/Info


-or-


 

Live Flight TrackerFlight Track Log ✈ AWE1842 ✈ 08-Apr-2013 ✈ KMCO - KCLT

Flight Track Log - Related Links

Times and Time Zones

All times are in EDT time to prevent confusion due to time zone crossing. See the AWE1842 flight status page for this flight to view local times or setup timezone preferences in your user account.

Time Position Orientation Groundspeed Altitude Reporting Facility
EDT Latitude Longitude Course Direction KTS MPH feet Rate Location/Type
05:32AM 28.7523 -81.3410 354° North  Level FlightAware Approximate
05:33AM 28.8652 -81.3532 355° North  Level FlightAware Approximate
05:34AM 28.9782 -81.3645 355° North  Level FlightAware Approximate
05:34AM 28.4520 -81.2130 North 289 333 10,400  Level FlightAware
05:35AM 29.0902 -81.3833 North  Level FlightAware Approximate
05:35AM 28.5280 -81.2340 346° North 358 412 11,700  Level FlightAware
05:35AM 28.5980 -81.2530 347° North 376 433 13,600 3,060 Climbing FlightAware
05:36AM 28.6580 -81.2690 347° North 388 447 15,300 2,760 Climbing FlightAware
05:36AM 28.7220 -81.2860 347° North 397 457 17,100 2,400 Climbing FlightAware
05:37AM 28.7810 -81.3000 348° North 403 464 18,700 2,580 Climbing FlightAware
05:38AM 28.8770 -81.3010 359° North 418 481 20,800 1,380 Climbing FlightAware
05:39AM 28.9540 -81.2980 North 418 481 20,800  Level FlightAware
05:39AM 29.0200 -81.2950 North 418 481 20,800  Level FlightAware
05:40AM 29.0860 -81.2930 North 418 481 20,800  Level FlightAware
05:41AM 29.1510 -81.2900 North 418 481 20,800  Level FlightAware
05:41AM 29.2170 -81.2880 North 418 481 20,800 9,600 Level FlightAware
05:42AM 29.4286 -81.2067 North 457 526 29,600 9,000 Climbing Jacksonville Center
05:43AM 29.5514 -81.1808 10° North 462 532 32,100 2,400 Climbing Jacksonville Center
05:44AM 29.6764 -81.1500 12° North 462 532 34,400 1,920 Climbing Jacksonville Center
05:45AM 29.7992 -81.1214 11° North 457 526 36,000 1,500 Climbing Jacksonville Center
05:46AM 29.9197 -81.0928 12° North 446 513 37,500 1,200 Climbing Jacksonville Center
05:47AM 30.0447 -81.0642 11° North 446 513 38,400 720 Climbing Jacksonville Center
05:48AM 30.1694 -81.0331 12° North 451 519 39,000 300 Climbing Jacksonville Center
05:49AM 30.2922 -81.0017 12° North 451 519 39,000  Level Jacksonville Center
05:50AM 30.4150 -80.9728 11° North 451 519 39,000  Level Jacksonville Center
05:51AM 30.5419 -80.9436 11° North 451 519 39,000  Level Jacksonville Center
05:52AM 30.6644 -80.9122 12° North 451 519 39,000  Level Jacksonville Center
05:57AM 31.3860 -80.7360 12° North 455 524 39,000  Level FlightAware
05:58AM 31.4710 -80.7150 12° North 455 524 39,000  Level FlightAware
05:59AM 31.5660 -80.6920 12° North 456 525 39,000  Level FlightAware
05:59AM 31.6230 -80.6790 11° North 456 525 39,000  Level FlightAware
06:00AM 31.7110 -80.6590 11° North 456 525 39,000  Level FlightAware
06:01AM 31.7810 -80.6430 11° North 456 525 39,000  Level FlightAware
06:02AM 31.8520 -80.6270 11° North 456 525 39,000  Level FlightAware
06:02AM 31.9220 -80.6100 12° North 456 525 39,000  Level FlightAware
06:03AM 31.9920 -80.5940 11° North 456 525 39,000  Level FlightAware
06:04AM 32.0800 -80.5740 11° North 456 525 39,000  Level FlightAware
06:04AM 32.2690 -80.5170 14° North 464 534 39,000  Level FlightAware
06:05AM 32.3720 -80.4910 12° North 464 534 39,000  Level FlightAware
06:06AM 32.4800 -80.4640 12° North 465 535 39,000  Level FlightAware
06:07AM 32.5630 -80.4430 12° North 464 534 39,000  Level FlightAware
06:07AM 32.6470 -80.4220 12° North 464 534 39,000  Level FlightAware
06:08AM 32.7380 -80.3990 12° North 464 534 39,000  Level FlightAware
06:09AM 32.8240 -80.3770 12° North 464 534 39,000  Level FlightAware
06:10AM 32.9210 -80.3520 12° North 464 534 39,000 -360 Level FlightAware
06:10AM 33.0040 -80.3310 12° North 464 534 38,500 -1,440 Descending FlightAware
06:11AM 33.0870 -80.3100 12° North 460 529 37,100 -2,340 Descending FlightAware
06:12AM 33.1810 -80.2860 12° North 459 528 35,200 -2,700 Descending FlightAware
06:12AM 33.2650 -80.2650 12° North 460 529 33,300 -2,940 Descending FlightAware
06:13AM 33.3580 -80.2410 12° North 463 533 31,100 -2,940 Descending FlightAware
06:14AM 33.4380 -80.2200 12° North 464 534 29,200 -2,700 Descending FlightAware
06:14AM 33.5240 -80.1980 12° North 454 522 27,500 -2,520 Descending FlightAware
06:15AM 33.6160 -80.1740 12° North 444 511 25,700 -2,340 Descending FlightAware
06:16AM 33.6920 -80.1510 14° North 440 506 24,200 -1,920 Descending FlightAware
06:17AM 33.7760 -80.1010 26° Northeast 438 504 23,000 -900 Descending FlightAware
06:17AM 33.8450 -80.0530 30° Northeast 441 507 23,000  Level FlightAware
06:18AM 33.9080 -80.0090 30° Northeast 445 512 23,000  Level FlightAware
06:19AM 33.9820 -79.9570 30° Northeast 445 512 23,000  Level FlightAware
06:19AM 34.0420 -79.9150 30° Northeast 445 512 23,000  Level FlightAware
06:20AM 34.1180 -79.8620 30° Northeast 445 512 23,000  Level FlightAware
06:21AM 34.1790 -79.8200 30° Northeast 445 512 23,000  Level FlightAware
06:21AM 34.2390 -79.7780 30° Northeast 445 512 23,000  Level FlightAware
06:22AM 34.3000 -79.7350 30° Northeast 445 512 23,000 -1,800 Level FlightAware
06:23AM 34.1786 -80.0889 30° Northeast 197 227 21,100 -2,100 Descending Jacksonville Center
06:24AM 34.1169 -80.0306 142° Southeast 132 152 20,100 -1,260 Descending Jacksonville Center
06:25AM 34.1633 -79.9564 53° Northeast 139 160 18,600 -1,440 Descending Jacksonville Center
06:26AM 34.2392 -79.9889 340° North 169 194 17,300 -1,380 Descending Jacksonville Center
06:27AM 34.3156 -80.0467 328° Northwest 248 285 15,900 -1,500 Descending Jacksonville Center
06:28AM 34.3961 -80.1094 327° Northwest 298 343 14,400 -1,200 Descending Jacksonville Center
06:29AM 34.4831 -80.1747 328° Northwest 341 392 13,600 -960 Descending Jacksonville Center
06:31AM 34.6944 -80.3378 328° Northwest 327 376 11,100 -780 Descending Atlanta Center
06:32AM 34.7572 -80.4158 314° West 288 331 11,000 -60 Descending Atlanta Center
06:33AM 34.8297 -80.4733 327° Northwest 293 337 11,000 -420 Level Atlanta Center
06:34AM 34.8914 -80.5114 333° Northwest 293 337 10,200 -1,200 Descending Atlanta Center
06:35AM 34.9678 -80.5561 334° Northwest 290 334 8,700 -1,080 Descending Atlanta Center
06:41AM 35.3080 -80.8010 334° Northwest 149 171 2,800 -960 Descending FlightAware
06:42AM 35.3030 -80.8170 249° West 150 173 2,800 -180 Level FlightAware
06:42AM 35.2940 -80.8330 235° Southwest 154 177 2,700 -480 Descending FlightAware
06:42AM 35.2880 -80.8420 231° Southwest 154 177 2,500 -900 Descending FlightAware
06:43AM 35.2790 -80.8540 227° Southwest 143 165 2,200 -480 Descending FlightAware
06:43AM 35.2700 -80.8670 230° Southwest 130 150 1,900 -360 Descending FlightAware